Terminal Aerodrome Forecast
Issued by NWS Tiyan, Guam

Current Version | Previous Version | Text Only | Print | Product List | Glossary On
Versions: 1 2 3 4 5 6 7 8 9 10 11 12 13 14 15 16 17 18 19 20 21 22 23
000
FTPQ31 PGUM 091700
TAFPQ
TAF
PGUM 091723Z 0918/1024 05006KT P6SM VCSH FEW020 SCT120
     FM092300 06011KT P6SM VCSH SCT020 SCT035 SCT120
     FM100800 08006KT P6SM VCSH SCT020 SCT120=

USA.gov is the U.S. government's official web portal to all federal, state and local government web resources and services.